Time;durP1;ratioP1;P1;durP2;ratioP2;P2;SDS_P1;SDS_P2;PMS_P1;PMS_P2;Temp;Humidity;BMP_temperature;BMP_pressure;BME280_temperature;BME280_humidity;BME280_pressure;Samples;Min_cycle;Max_cycle;Signal;HPM_P1;HPM_P2
2023/12/31 00:04:20;;;;;;;2.87;1.07;;;;;8.70;99786.00;;;;9850268;29;20243;-79
2023/12/31 00:09:21;;;;;;;4.47;1.07;;;;;8.60;99777.00;;;;9865623;29;20255;-79
2023/12/31 00:14:22;;;;;;;1.83;1.20;;;;;8.50;99765.00;;;;9840046;29;20307;-79
2023/12/31 00:19:24;;;;;;;4.13;1.30;;;;;8.40;99733.00;;;;9853712;29;20263;-79
2023/12/31 00:24:25;;;;;;;2.93;1.00;;;;;8.50;99739.00;;;;9870512;29;20232;-79
2023/12/31 00:29:29;;;;;;;1.90;1.30;;;;;8.50;99732.00;;;;9855263;29;20227;-88
2023/12/31 00:34:30;;;;;;;3.57;1.40;;;;;8.40;99717.00;;;;9860499;29;20297;-90
2023/12/31 00:39:31;;;;;;;2.80;1.40;;;;;8.50;99712.00;;;;9872402;29;20293;-87
2023/12/31 00:44:33;;;;;;;3.33;1.33;;;;;8.50;99685.00;;;;9845279;29;20235;-88
2023/12/31 00:49:34;;;;;;;7.20;1.30;;;;;8.50;99674.00;;;;9846207;29;20239;-86
2023/12/31 00:54:35;;;;;;;3.20;1.53;;;;;8.40;99665.00;;;;9867378;29;20967;-87
2023/12/31 00:59:36;;;;;;;1.30;1.20;;;;;8.40;99649.00;;;;9877371;29;20235;-87
2023/12/31 01:04:37;;;;;;;4.77;1.60;;;;;8.40;99642.00;;;;9885301;29;20235;-85
2023/12/31 01:09:40;;;;;;;3.63;1.60;;;;;8.40;99628.00;;;;9861483;29;20235;-88
2023/12/31 01:14:41;;;;;;;1.80;1.70;;;;;8.40;99611.00;;;;9878009;29;20284;-88
2023/12/31 01:19:42;;;;;;;4.17;1.70;;;;;8.40;99609.00;;;;9857118;29;20235;-88
2023/12/31 01:24:43;;;;;;;2.93;1.23;;;;;8.40;99609.00;;;;9861021;29;20292;-87
2023/12/31 01:29:45;;;;;;;1.93;1.30;;;;;8.50;99609.00;;;;9843967;29;20228;-88
2023/12/31 01:34:46;;;;;;;2.30;1.20;;;;;8.50;99587.00;;;;9843354;29;20246;-88
2023/12/31 01:39:47;;;;;;;1.90;1.70;;;;;8.60;99580.00;;;;9877407;29;20238;-81
2023/12/31 01:44:49;;;;;;;1.43;1.23;;;;;8.60;99565.00;;;;9858688;29;20333;-81
2023/12/31 01:49:50;;;;;;;3.00;1.63;;;;;8.60;99542.00;;;;9843554;29;20235;-82
2023/12/31 01:54:53;;;;;;;3.13;1.57;;;;;8.60;99555.00;;;;9843521;29;20253;-81
2023/12/31 01:59:55;;;;;;;2.60;1.30;;;;;8.60;99538.00;;;;9857408;29;20239;-81
2023/12/31 02:04:57;;;;;;;3.00;1.20;;;;;8.70;99538.00;;;;9857238;29;20236;-82
2023/12/31 02:09:58;;;;;;;3.00;1.20;;;;;8.70;99536.00;;;;9835238;29;20224;-82
2023/12/31 02:15:00;;;;;;;2.07;1.27;;;;;8.80;99514.00;;;;9854364;29;20282;-81
2023/12/31 02:20:03;;;;;;;1.93;1.30;;;;;8.80;99516.00;;;;9855052;29;20274;-81
2023/12/31 02:25:09;;;;;;;1.83;1.33;;;;;8.70;99498.00;;;;9854996;29;20886;-82
2023/12/31 02:30:11;;;;;;;2.40;1.47;;;;;8.80;99481.00;;;;9873003;29;20235;-82
2023/12/31 02:35:12;;;;;;;1.53;1.33;;;;;8.80;99464.00;;;;9859161;29;20799;-82
2023/12/31 02:40:13;;;;;;;2.80;1.53;;;;;8.70;99441.00;;;;9853336;29;21247;-81
2023/12/31 02:45:14;;;;;;;1.53;1.40;;;;;8.80;99434.00;;;;9858998;29;20543;-81
2023/12/31 02:50:15;;;;;;;2.20;1.60;;;;;8.80;99412.00;;;;9863175;29;20885;-80
2023/12/31 02:55:17;;;;;;;1.33;1.23;;;;;8.80;99407.00;;;;9861799;29;20236;-83
2023/12/31 03:00:18;;;;;;;3.10;1.40;;;;;8.80;99400.00;;;;9856673;29;20250;-82
2023/12/31 03:05:19;;;;;;;4.83;1.70;;;;;8.80;99383.00;;;;9854324;29;20738;-81
2023/12/31 03:10:20;;;;;;;2.40;1.00;;;;;8.80;99353.00;;;;9875044;29;20262;-82
2023/12/31 03:15:22;;;;;;;1.93;1.30;;;;;8.90;99336.00;;;;9842729;29;20288;-83
2023/12/31 03:20:24;;;;;;;3.13;1.60;;;;;8.90;99328.00;;;;9871850;29;20236;-83
2023/12/31 03:25:25;;;;;;;1.83;1.43;;;;;8.90;99326.00;;;;9853976;29;20243;-81
2023/12/31 03:30:26;;;;;;;1.30;1.20;;;;;9.00;99321.00;;;;9868583;29;20235;-82
2023/12/31 03:35:27;;;;;;;2.20;1.43;;;;;9.10;99292.00;;;;9845831;29;20840;-81
2023/12/31 03:40:28;;;;;;;3.47;1.40;;;;;9.10;99293.00;;;;9855704;29;20263;-82
2023/12/31 03:45:29;;;;;;;1.87;1.50;;;;;9.20;99298.00;;;;9859827;29;20242;-83
2023/12/31 03:50:31;;;;;;;2.43;1.40;;;;;9.20;99284.00;;;;9845348;29;20231;-83
2023/12/31 03:55:32;;;;;;;1.80;1.50;;;;;9.20;99265.00;;;;9840006;29;20231;-81
2023/12/31 04:00:34;;;;;;;2.03;1.60;;;;;9.20;99255.00;;;;9861844;29;20238;-81
2023/12/31 04:05:35;;;;;;;2.40;1.50;;;;;9.20;99239.00;;;;9842273;29;20920;-82
2023/12/31 04:10:36;;;;;;;1.93;1.77;;;;;9.20;99224.00;;;;9845744;30;20244;-81
2023/12/31 04:15:38;;;;;;;2.77;1.73;;;;;9.20;99216.00;;;;9857824;29;20338;-81
2023/12/31 04:20:39;;;;;;;1.63;1.40;;;;;9.20;99203.00;;;;9856498;29;20228;-81
2023/12/31 04:25:40;;;;;;;2.83;2.30;;;;;9.30;99191.00;;;;9872008;29;20266;-82
2023/12/31 04:30:41;;;;;;;3.47;1.93;;;;;9.40;99165.00;;;;9863086;29;20228;-79
2023/12/31 04:35:43;;;;;;;2.30;2.10;;;;;9.40;99172.00;;;;9852080;29;20807;-81
2023/12/31 04:40:52;;;;;;;1.80;1.70;;;;;9.50;99160.00;;;;9846859;29;20243;-81
2023/12/31 04:45:53;;;;;;;3.13;2.40;;;;;9.50;99135.00;;;;9837247;29;20244;-79
2023/12/31 04:50:55;;;;;;;1.80;1.37;;;;;9.50;99124.00;;;;9851333;29;20301;-82
2023/12/31 04:55:56;;;;;;;1.73;1.57;;;;;9.60;99106.00;;;;9846718;29;20752;-80
2023/12/31 05:00:57;;;;;;;1.80;1.63;;;;;9.60;99107.00;;;;9866235;29;20261;-80
2023/12/31 05:05:58;;;;;;;1.67;1.57;;;;;9.60;99104.00;;;;9849531;29;20235;-82
2023/12/31 05:10:59;;;;;;;1.93;1.10;;;;;9.70;99115.00;;;;9857087;29;20918;-85
2023/12/31 05:16:02;;;;;;;1.40;1.10;;;;;9.70;99094.00;;;;9855520;29;20235;-83
2023/12/31 05:21:03;;;;;;;1.40;1.30;;;;;9.70;99094.00;;;;9834354;29;20239;-83
2023/12/31 05:26:05;;;;;;;2.50;1.60;;;;;9.80;99076.00;;;;9849922;29;20310;-82
2023/12/31 05:31:06;;;;;;;2.77;1.50;;;;;9.70;99074.00;;;;9865799;29;20261;-82
2023/12/31 05:36:07;;;;;;;3.40;1.70;;;;;9.80;99066.00;;;;9833266;29;20231;-82
2023/12/31 05:41:09;;;;;;;1.57;1.47;;;;;9.90;99064.00;;;;9843012;29;20311;-83
2023/12/31 05:46:10;;;;;;;1.43;1.33;;;;;10.00;99042.00;;;;9859042;29;20782;-84
2023/12/31 05:51:11;;;;;;;1.27;1.10;;;;;10.00;99044.00;;;;9843738;29;20269;-83
2023/12/31 05:56:14;;;;;;;2.03;1.80;;;;;10.00;99034.00;;;;9864309;29;20767;-81
2023/12/31 06:01:16;;;;;;;2.10;1.53;;;;;10.00;99014.00;;;;9851548;29;20577;-80
2023/12/31 06:06:20;;;;;;;3.13;1.60;;;;;10.10;99001.00;;;;9848534;29;20239;-82
2023/12/31 06:11:21;;;;;;;1.50;1.40;;;;;10.10;98996.00;;;;9838892;29;20968;-83
2023/12/31 06:16:22;;;;;;;1.47;1.37;;;;;10.20;99001.00;;;;9833242;29;20232;-84
2023/12/31 06:21:24;;;;;;;2.70;1.50;;;;;10.20;98992.00;;;;9834630;29;20757;-82
2023/12/31 06:26:25;;;;;;;3.10;1.70;;;;;10.30;98968.00;;;;9853797;29;20364;-79
2023/12/31 06:31:26;;;;;;;1.80;1.50;;;;;10.30;98966.00;;;;9871074;29;20235;-81
2023/12/31 06:36:27;;;;;;;3.57;1.57;;;;;10.30;98970.00;;;;9854893;29;20591;-78
2023/12/31 06:41:29;;;;;;;2.53;1.50;;;;;10.40;98964.00;;;;9845121;29;20255;-81
2023/12/31 06:46:30;;;;;;;1.50;1.30;;;;;10.40;98937.00;;;;9850224;29;20263;-81
2023/12/31 06:51:37;;;;;;;2.30;1.50;;;;;10.50;98924.00;;;;9836448;29;20321;-81
2023/12/31 06:56:38;;;;;;;1.83;1.60;;;;;10.40;98924.00;;;;9852428;29;20228;-81
2023/12/31 07:01:39;;;;;;;2.77;1.70;;;;;10.50;98927.00;;;;9841164;29;20966;-82
2023/12/31 07:06:40;;;;;;;1.50;1.17;;;;;10.40;98915.00;;;;9845709;29;20785;-80
2023/12/31 07:11:42;;;;;;;1.33;1.23;;;;;10.40;98922.00;;;;9828626;30;20235;-78
2023/12/31 07:16:43;;;;;;;2.30;1.00;;;;;10.30;98918.00;;;;9844153;29;21040;-81
2023/12/31 07:21:45;;;;;;;1.40;1.30;;;;;10.20;98906.00;;;;9862941;29;20228;-82
2023/12/31 07:26:47;;;;;;;1.20;1.10;;;;;10.20;98909.00;;;;9879977;29;20241;-81
2023/12/31 07:31:49;;;;;;;1.10;1.00;;;;;10.20;98885.00;;;;9855800;29;20300;-81
2023/12/31 07:36:50;;;;;;;1.30;1.07;;;;;10.00;98877.00;;;;9861941;29;20232;-79
2023/12/31 07:41:51;;;;;;;1.30;1.20;;;;;9.80;98912.00;;;;9844920;29;20242;-80
2023/12/31 07:46:56;;;;;;;2.03;1.00;;;;;9.60;98907.00;;;;9864777;29;20267;-80
2023/12/31 07:51:57;;;;;;;2.30;1.23;;;;;9.40;98904.00;;;;9846716;29;20285;-81
2023/12/31 07:56:59;;;;;;;1.23;0.83;;;;;9.20;98906.00;;;;9870469;29;20235;-81
2023/12/31 08:02:02;;;;;;;1.60;1.00;;;;;9.10;98920.00;;;;9881684;29;20243;-80
2023/12/31 08:07:04;;;;;;;1.33;0.60;;;;;9.10;98916.00;;;;9877118;29;20397;-80
2023/12/31 08:12:05;;;;;;;1.03;0.93;;;;;9.10;98923.00;;;;9855560;29;20242;-80
2023/12/31 08:17:07;;;;;;;0.40;0.40;;;;;9.10;98926.00;;;;9867834;29;20239;-81
2023/12/31 08:22:08;;;;;;;1.70;0.50;;;;;9.10;98937.00;;;;9851294;29;20650;-80
2023/12/31 08:27:09;;;;;;;1.17;0.60;;;;;9.10;98936.00;;;;9845603;29;20717;-80
2023/12/31 08:32:11;;;;;;;3.00;0.53;;;;;9.10;98941.00;;;;9850235;29;20237;-80
2023/12/31 08:37:12;;;;;;;2.10;1.20;;;;;9.20;98956.00;;;;9872617;29;20262;-79
2023/12/31 08:42:13;;;;;;;2.17;0.97;;;;;9.10;98952.00;;;;9853482;29;20866;-83
2023/12/31 08:47:14;;;;;;;2.53;0.70;;;;;9.20;98963.00;;;;9853414;29;21011;-81
2023/12/31 08:52:15;;;;;;;1.93;0.67;;;;;9.30;98965.00;;;;9840044;29;20243;-80
2023/12/31 08:57:19;;;;;;;1.27;0.57;;;;;9.30;98958.00;;;;9856825;29;20231;-83
2023/12/31 09:02:21;;;;;;;2.43;1.23;;;;;9.30;98979.00;;;;9842924;29;20247;-83
2023/12/31 09:07:22;;;;;;;3.30;0.80;;;;;9.40;98987.00;;;;9849986;29;20842;-83
2023/12/31 09:12:23;;;;;;;0.40;0.40;;;;;9.30;98979.00;;;;9862732;29;20236;-82
2023/12/31 09:17:24;;;;;;;2.97;0.80;;;;;9.30;98984.00;;;;9851753;29;20241;-82
2023/12/31 09:22:26;;;;;;;2.53;0.83;;;;;9.60;99001.00;;;;9847739;29;20236;-83
2023/12/31 09:27:27;;;;;;;2.03;0.70;;;;;9.50;99025.00;;;;9854882;29;20244;-84
2023/12/31 09:32:28;;;;;;;3.03;1.30;;;;;9.30;99041.00;;;;9840614;29;20231;-83
2023/12/31 09:37:30;;;;;;;2.40;0.93;;;;;9.00;99035.00;;;;9849124;29;20772;-82
2023/12/31 09:42:51;;;;;;;2.60;0.60;;;;;8.80;99033.00;;;;9844542;29;20894;-80
2023/12/31 09:47:53;;;;;;;0.30;0.30;;;;;8.70;99040.00;;;;9843106;29;20255;-80
2023/12/31 09:52:59;;;;;;;0.80;0.53;;;;;8.80;99042.00;;;;9842180;29;20240;-84
2023/12/31 09:58:04;;;;;;;2.67;0.87;;;;;9.00;99070.00;;;;9877896;29;20255;-86
2023/12/31 10:03:06;;;;;;;1.80;0.90;;;;;9.30;99083.00;;;;9884215;29;20228;-86
2023/12/31 10:08:09;;;;;;;2.00;0.90;;;;;9.40;99084.00;;;;9848377;29;20947;-85
2023/12/31 10:13:17;;;;;;;2.47;0.70;;;;;9.40;99093.00;;;;9855087;29;20223;-85
2023/12/31 10:18:19;;;;;;;1.73;0.80;;;;;9.30;99096.00;;;;9890873;29;20247;-85
2023/12/31 10:23:20;;;;;;;1.33;0.80;;;;;9.40;99112.00;;;;9859025;29;20318;-85
2023/12/31 10:28:21;;;;;;;0.97;0.70;;;;;9.90;99110.00;;;;9850733;29;20272;-86
2023/12/31 10:33:27;;;;;;;6.53;1.00;;;;;10.20;99120.00;;;;9868704;29;20235;-86
2023/12/31 10:38:28;;;;;;;3.60;0.87;;;;;9.90;99121.00;;;;9872840;29;20571;-86
2023/12/31 10:43:30;;;;;;;2.10;0.90;;;;;9.60;99128.00;;;;9868786;29;20267;-87
2023/12/31 10:48:34;;;;;;;3.50;0.90;;;;;9.60;99130.00;;;;9853155;29;20236;-87
2023/12/31 10:53:39;;;;;;;3.33;1.30;;;;;9.60;99142.00;;;;9915091;24;20213;-87
2023/12/31 10:58:40;;;;;;;5.13;0.90;;;;;9.50;99151.00;;;;9882908;29;20240;-87
2023/12/31 11:03:42;;;;;;;6.13;1.43;;;;;9.20;99164.00;;;;9856722;29;20236;-80
2023/12/31 11:08:47;;;;;;;4.70;1.20;;;;;8.90;99155.00;;;;9859719;29;20235;-80
2023/12/31 11:13:53;;;;;;;3.53;1.03;;;;;8.80;99157.00;;;;9849883;29;20235;-82
2023/12/31 11:19:06;;;;;;;4.20;1.10;;;;;8.80;99162.00;;;;9876034;29;20326;-78
2023/12/31 11:24:18;;;;;;;5.60;1.10;;;;;8.80;99148.00;;;;9849718;29;20463;-77
2023/12/31 11:29:20;;;;;;;3.73;1.10;;;;;8.80;99150.00;;;;9876653;29;20873;-80
2023/12/31 11:34:21;;;;;;;4.43;0.80;;;;;8.80;99153.00;;;;9860442;29;20579;-80
2023/12/31 11:39:24;;;;;;;2.57;0.67;;;;;8.80;99144.00;;;;9862077;29;20261;-79
2023/12/31 11:44:44;;;;;;;3.17;0.97;;;;;9.00;99142.00;;;;9852230;29;20235;-79
2023/12/31 11:50:13;;;;;;;5.07;1.47;;;;;9.20;99147.00;;;;9843258;29;20240;-81
2023/12/31 11:55:17;;;;;;;4.57;1.20;;;;;9.40;99151.00;;;;9851219;29;20238;-80
2023/12/31 12:00:19;;;;;;;6.67;2.97;;;;;9.50;99154.00;;;;9866140;29;20232;-81
2023/12/31 12:05:20;;;;;;;4.70;1.87;;;;;9.30;99151.00;;;;9865892;29;20255;-81
2023/12/31 12:10:23;;;;;;;5.33;1.53;;;;;9.10;99145.00;;;;9853084;29;20313;-88
2023/12/31 12:15:24;;;;;;;4.80;1.17;;;;;9.10;99138.00;;;;9877859;29;20303;-86
2023/12/31 12:20:25;;;;;;;5.00;2.20;;;;;9.10;99146.00;;;;9884329;24;20240;-88
2023/12/31 12:25:26;;;;;;;6.33;1.70;;;;;9.20;99134.00;;;;9822740;30;20237;-87
2023/12/31 12:30:28;;;;;;;8.63;1.70;;;;;9.30;99131.00;;;;9798126;30;20960;-87
2023/12/31 12:35:31;;;;;;;6.77;2.20;;;;;9.40;99139.00;;;;9802705;30;20378;-87
2023/12/31 12:40:32;;;;;;;5.57;1.37;;;;;9.40;99128.00;;;;9819347;30;20236;-88
2023/12/31 12:45:34;;;;;;;8.40;2.20;;;;;9.50;99132.00;;;;9816787;30;20578;-88
2023/12/31 12:50:35;;;;;;;9.50;1.70;;;;;9.80;99129.00;;;;9807357;30;20241;-87
2023/12/31 12:55:36;;;;;;;10.63;2.33;;;;;10.10;99136.00;;;;9810191;30;20289;-87
2023/12/31 13:00:37;;;;;;;9.60;1.90;;;;;10.20;99116.00;;;;9798266;29;20271;-88
2023/12/31 13:05:39;;;;;;;10.57;2.40;;;;;10.60;99111.00;;;;9805370;30;20238;-88
2023/12/31 13:10:40;;;;;;;9.07;2.10;;;;;11.10;99117.00;;;;9796727;30;20723;-87
2023/12/31 13:15:43;;;;;;;8.87;2.20;;;;;10.60;99116.00;;;;9799907;30;20992;-87
2023/12/31 13:20:45;;;;;;;6.03;1.70;;;;;10.40;99112.00;;;;9812104;30;20324;-81
2023/12/31 13:25:46;;;;;;;7.20;2.13;;;;;10.30;99117.00;;;;9778452;30;20236;-80
2023/12/31 13:30:49;;;;;;;12.20;2.43;;;;;10.20;99114.00;;;;9780099;30;20227;-80
2023/12/31 13:35:50;;;;;;;10.33;2.87;;;;;10.20;99105.00;;;;9797736;30;20315;-81
2023/12/31 13:40:51;;;;;;;11.13;2.57;;;;;10.00;99110.00;;;;9802509;29;20238;-80
2023/12/31 13:45:53;;;;;;;18.87;3.33;;;;;9.90;99106.00;;;;9780544;30;20232;-80
2023/12/31 13:50:54;;;;;;;13.43;2.97;;;;;10.20;99096.00;;;;9801991;30;20906;-81
2023/12/31 13:55:55;;;;;;;13.43;3.50;;;;;10.60;99102.00;;;;9769385;30;20247;-80
2023/12/31 14:00:57;;;;;;;8.53;2.70;;;;;10.50;99088.00;;;;9791415;30;20221;-83
2023/12/31 14:05:58;;;;;;;16.90;3.30;;;;;10.20;99091.00;;;;9761730;30;20257;-82
2023/12/31 14:10:59;;;;;;;13.27;3.30;;;;;10.10;99079.00;;;;9827644;30;20973;-82
2023/12/31 14:16:02;;;;;;;12.00;2.77;;;;;10.10;99086.00;;;;9803003;29;20233;-81
2023/12/31 14:21:03;;;;;;;14.73;3.27;;;;;10.00;99070.00;;;;9797389;30;20232;-81
2023/12/31 14:26:04;;;;;;;18.57;4.10;;;;;10.00;99055.00;;;;9794051;29;20275;-81
2023/12/31 14:31:06;;;;;;;13.90;2.93;;;;;10.10;99072.00;;;;9799411;30;20243;-79
2023/12/31 14:36:07;;;;;;;11.63;2.67;;;;;10.20;99087.00;;;;9786318;30;20239;-80
2023/12/31 14:41:09;;;;;;;10.80;2.10;;;;;10.10;99078.00;;;;9794674;29;20233;-80
2023/12/31 14:46:11;;;;;;;10.13;2.67;;;;;9.80;99098.00;;;;9814631;29;20268;-82
2023/12/31 14:51:12;;;;;;;7.77;2.27;;;;;9.60;99089.00;;;;9777616;29;20273;-82
2023/12/31 14:56:13;;;;;;;11.83;3.80;;;;;9.50;99096.00;;;;9802358;30;20268;-80
2023/12/31 15:01:15;;;;;;;15.93;2.70;;;;;9.40;99100.00;;;;9803111;30;20332;-82
2023/12/31 15:06:16;;;;;;;14.33;2.77;;;;;9.10;99110.00;;;;9809738;30;20241;-81
2023/12/31 15:11:18;;;;;;;13.43;2.93;;;;;8.60;99119.00;;;;9797609;30;20261;-80
2023/12/31 15:16:35;;;;;;;10.67;3.10;;;;;8.20;99099.00;;;;9805505;30;20298;-80
2023/12/31 15:21:36;;;;;;;10.77;2.60;;;;;8.00;99087.00;;;;9790559;29;20904;-79
2023/12/31 15:26:37;;;;;;;14.17;2.60;;;;;8.00;99073.00;;;;9806184;30;20252;-79
2023/12/31 15:31:40;;;;;;;14.20;2.33;;;;;8.10;99055.00;;;;9788478;30;20850;-78
2023/12/31 15:36:41;;;;;;;13.70;2.70;;;;;8.30;99058.00;;;;9779488;29;20949;-81
2023/12/31 15:41:42;;;;;;;10.60;2.90;;;;;8.60;99067.00;;;;9792628;30;20240;-83
2023/12/31 15:46:44;;;;;;;12.13;2.37;;;;;8.70;99087.00;;;;9791113;30;20881;-80
2023/12/31 15:51:45;;;;;;;11.43;2.57;;;;;8.80;99074.00;;;;9808561;30;20239;-80
2023/12/31 15:56:46;;;;;;;15.23;2.67;;;;;8.90;99072.00;;;;9800116;30;20236;-81
2023/12/31 16:01:48;;;;;;;7.57;1.97;;;;;9.00;99078.00;;;;9805485;29;20236;-80
2023/12/31 16:06:49;;;;;;;13.43;2.53;;;;;9.00;99080.00;;;;9792713;30;20241;-81
2023/12/31 16:11:50;;;;;;;5.80;1.63;;;;;8.90;99083.00;;;;9776544;30;20889;-78
2023/12/31 16:16:51;;;;;;;10.73;2.37;;;;;8.90;99086.00;;;;9806547;29;20821;-79
2023/12/31 16:21:53;;;;;;;7.13;2.53;;;;;8.90;99059.00;;;;9789198;30;20578;-84
2023/12/31 16:26:54;;;;;;;11.20;2.47;;;;;8.90;99092.00;;;;9808739;30;20248;-79
2023/12/31 16:31:55;;;;;;;4.37;1.10;;;;;9.00;99087.00;;;;9817766;29;20879;-82
2023/12/31 16:36:56;;;;;;;10.70;1.80;;;;;9.00;99073.00;;;;9815259;30;20297;-77
2023/12/31 16:41:58;;;;;;;8.30;2.00;;;;;9.00;99099.00;;;;9787889;30;20237;-79
2023/12/31 16:46:59;;;;;;;8.17;1.87;;;;;9.00;99093.00;;;;9789007;30;20264;-80
2023/12/31 16:52:01;;;;;;;10.87;1.70;;;;;8.90;99099.00;;;;9795401;29;20236;-80
2023/12/31 16:57:02;;;;;;;6.87;1.47;;;;;9.00;99098.00;;;;9785718;30;20239;-80
2023/12/31 17:02:04;;;;;;;10.87;1.83;;;;;9.10;99116.00;;;;9906887;24;20228;-84
2023/12/31 17:07:05;;;;;;;9.40;1.67;;;;;9.10;99126.00;;;;9998589;25;20231;-85
2023/12/31 17:12:06;;;;;;;5.97;1.97;;;;;9.10;99121.00;;;;9909809;29;20239;-85
2023/12/31 17:17:08;;;;;;;8.80;2.23;;;;;9.10;99133.00;;;;9974762;24;20232;-85
2023/12/31 17:22:09;;;;;;;6.37;1.53;;;;;9.10;99145.00;;;;10095624;24;20228;-85
2023/12/31 17:27:10;;;;;;;5.63;1.47;;;;;9.00;99141.00;;;;9898687;29;20278;-85
2023/12/31 17:39:03;;;;;;;6.60;1.87;;;;;9.00;99145.00;;;;2360373;24;20248;-85
2023/12/31 17:44:04;;;;;;;5.60;1.37;;;;;9.00;99149.00;;;;10324399;24;21224;-85
2023/12/31 17:49:06;;;;;;;8.93;1.90;;;;;8.80;99139.00;;;;10252535;24;20273;-86
2023/12/31 17:54:07;;;;;;;7.70;2.00;;;;;8.80;99144.00;;;;10023223;24;20303;-85
2023/12/31 17:59:08;;;;;;;5.40;1.23;;;;;8.70;99131.00;;;;10221454;24;21339;-84
2023/12/31 18:04:09;;;;;;;7.17;1.87;;;;;8.60;99143.00;;;;9849244;29;20327;-86
2023/12/31 18:09:11;;;;;;;12.50;2.40;;;;;8.60;99134.00;;;;9833085;29;20330;-83
2023/12/31 18:14:12;;;;;;;2.43;1.20;;;;;8.70;99143.00;;;;9837877;30;20591;-84
2023/12/31 18:19:13;;;;;;;7.27;1.40;;;;;8.80;99145.00;;;;9833092;29;20282;-83
2023/12/31 18:24:15;;;;;;;8.43;1.43;;;;;8.80;99144.00;;;;9828507;29;20232;-85
2023/12/31 18:29:16;;;;;;;7.13;1.47;;;;;8.80;99156.00;;;;9798933;29;20379;-82
2023/12/31 18:34:17;;;;;;;4.17;1.30;;;;;8.90;99173.00;;;;9807614;29;20232;-84
2023/12/31 18:39:19;;;;;;;6.13;1.87;;;;;8.90;99181.00;;;;9831088;29;20244;-83
2023/12/31 18:44:20;;;;;;;7.00;1.43;;;;;8.80;99185.00;;;;9813627;29;20296;-83
2023/12/31 18:49:25;;;;;;;7.07;1.97;;;;;8.70;99198.00;;;;9800227;29;20319;-85
2023/12/31 18:54:26;;;;;;;3.40;1.43;;;;;8.60;99200.00;;;;9817347;29;20289;-83
2023/12/31 18:59:27;;;;;;;8.20;1.50;;;;;8.50;99200.00;;;;9800367;30;20312;-83
2023/12/31 19:04:28;;;;;;;4.37;1.60;;;;;8.40;99189.00;;;;9781827;30;20286;-84
2023/12/31 19:09:29;;;;;;;3.10;1.30;;;;;8.40;99193.00;;;;9773318;30;20229;-83
2023/12/31 19:14:30;;;;;;;2.67;0.90;;;;;8.40;99206.00;;;;9791305;30;20355;-84
2023/12/31 19:19:34;;;;;;;10.90;2.53;;;;;8.50;99217.00;;;;9787315;30;20264;-81
2023/12/31 19:24:35;;;;;;;5.03;1.20;;;;;8.60;99217.00;;;;9801288;30;20236;-78
2023/12/31 19:29:36;;;;;;;4.47;1.70;;;;;8.60;99246.00;;;;9786629;30;20962;-79
2023/12/31 19:34:41;;;;;;;5.30;1.70;;;;;8.60;99244.00;;;;9787726;30;20639;-79
2023/12/31 19:39:42;;;;;;;7.37;1.57;;;;;8.20;99262.00;;;;9776733;30;20256;-81
2023/12/31 19:44:44;;;;;;;6.70;1.73;;;;;7.80;99288.00;;;;9787674;30;20266;-81
2023/12/31 19:49:45;;;;;;;7.87;1.80;;;;;7.50;99256.00;;;;9791009;30;20314;-82
2023/12/31 19:54:49;;;;;;;7.90;2.10;;;;;7.40;99246.00;;;;9772626;30;20241;-81
2023/12/31 19:59:50;;;;;;;9.03;2.10;;;;;7.40;99251.00;;;;9787789;30;20241;-83
2023/12/31 20:04:52;;;;;;;5.70;1.73;;;;;7.40;99276.00;;;;9774982;30;20256;-85
2023/12/31 20:09:53;;;;;;;11.87;2.87;;;;;7.30;99270.00;;;;9788012;30;20247;-83
2023/12/31 20:14:54;;;;;;;10.80;2.53;;;;;7.30;99284.00;;;;9775604;30;20315;-84
2023/12/31 20:19:55;;;;;;;4.70;2.10;;;;;7.20;99266.00;;;;9786649;30;20229;-83
2023/12/31 20:24:57;;;;;;;5.67;2.17;;;;;7.20;99273.00;;;;9787392;30;20781;-81
2023/12/31 20:29:58;;;;;;;10.07;1.90;;;;;7.20;99269.00;;;;9777836;30;20232;-85
2023/12/31 20:35:01;;;;;;;8.83;2.30;;;;;7.20;99275.00;;;;9806136;30;20324;-86
2023/12/31 20:40:04;;;;;;;9.20;2.00;;;;;7.30;99260.00;;;;9780518;30;20297;-84
2023/12/31 20:45:05;;;;;;;7.73;1.70;;;;;7.30;99284.00;;;;9785169;30;20236;-86
2023/12/31 20:50:07;;;;;;;5.60;1.77;;;;;7.40;99289.00;;;;9835769;30;20229;-86
2023/12/31 21:01:22;;;;;;;9.87;1.90;;;;;7.60;99284.00;;;;10322909;24;20251;-88
2023/12/31 21:06:24;;;;;;;8.87;1.67;;;;;7.70;99290.00;;;;9879522;29;20255;-85
2023/12/31 21:11:25;;;;;;;9.63;1.73;;;;;7.70;99304.00;;;;9965385;24;20250;-85
2023/12/31 21:16:26;;;;;;;8.33;1.87;;;;;7.60;99309.00;;;;9908909;29;20245;-87
2023/12/31 21:21:28;;;;;;;9.10;1.53;;;;;7.70;99304.00;;;;9890447;29;20272;-86
2023/12/31 21:26:29;;;;;;;8.30;1.90;;;;;7.80;99289.00;;;;9882213;29;20231;-86
2023/12/31 21:31:32;;;;;;;11.70;2.40;;;;;7.80;99279.00;;;;9880658;29;20308;-87
2023/12/31 21:36:38;;;;;;;9.40;2.43;;;;;7.70;99282.00;;;;9868390;29;20239;-88
2023/12/31 21:41:39;;;;;;;12.23;3.73;;;;;7.70;99289.00;;;;9854493;29;20588;-84
2023/12/31 21:46:40;;;;;;;7.63;1.80;;;;;7.70;99285.00;;;;9861642;29;20235;-84
2023/12/31 21:51:42;;;;;;;9.90;2.00;;;;;7.70;99296.00;;;;9850332;29;20238;-84
2023/12/31 21:56:43;;;;;;;8.63;2.03;;;;;7.70;99295.00;;;;9859426;29;20269;-85
2023/12/31 22:02:03;;;;;;;6.77;1.63;;;;;7.80;99344.00;;;;9866384;29;20227;-83
2023/12/31 22:07:04;;;;;;;12.57;2.90;;;;;7.80;99333.00;;;;9841937;29;20251;-84
2023/12/31 22:12:06;;;;;;;4.70;1.57;;;;;7.70;99331.00;;;;9869767;29;20235;-83
2023/12/31 22:17:07;;;;;;;11.27;1.50;;;;;7.70;99367.00;;;;9883537;29;20234;-84
2023/12/31 22:22:21;;;;;;;14.70;2.60;;;;;7.70;99368.00;;;;9855866;29;20239;-82
2023/12/31 22:27:24;;;;;;;11.27;1.67;;;;;7.70;99357.00;;;;9860963;29;20246;-84
2023/12/31 22:32:26;;;;;;;9.37;3.17;;;;;7.80;99381.00;;;;9856791;29;20227;-83
2023/12/31 22:37:27;;;;;;;8.17;2.17;;;;;7.80;99382.00;;;;9853821;29;20594;-84
2023/12/31 22:42:28;;;;;;;13.50;2.20;;;;;7.80;99376.00;;;;9872901;29;20231;-83
2023/12/31 22:47:29;;;;;;;6.13;1.43;;;;;7.80;99385.00;;;;9853191;29;20265;-85
2023/12/31 22:52:31;;;;;;;11.90;2.53;;;;;7.90;99400.00;;;;9844007;29;20234;-84
2023/12/31 22:57:32;;;;;;;6.30;1.77;;;;;7.80;99403.00;;;;9870562;29;20234;-85
2023/12/31 23:02:33;;;;;;;7.90;3.50;;;;;7.80;99415.00;;;;9859538;29;20267;-85
2023/12/31 23:07:34;;;;;;;11.53;3.47;;;;;7.90;99421.00;;;;9873759;29;20314;-84
2023/12/31 23:12:35;;;;;;;14.57;5.27;;;;;7.90;99425.00;;;;9868949;29;20232;-85
2023/12/31 23:17:37;;;;;;;12.00;4.97;;;;;7.90;99439.00;;;;9864989;29;20241;-85
2023/12/31 23:22:39;;;;;;;15.37;5.53;;;;;7.60;99429.00;;;;9868345;29;21269;-84
2023/12/31 23:27:40;;;;;;;13.50;4.60;;;;;7.10;99441.00;;;;9879968;29;20280;-82
2023/12/31 23:32:41;;;;;;;10.90;3.60;;;;;6.80;99436.00;;;;9882937;29;21964;-81
2023/12/31 23:37:42;;;;;;;11.37;2.77;;;;;6.70;99441.00;;;;9843013;29;20239;-79
2023/12/31 23:42:44;;;;;;;14.13;3.43;;;;;6.60;99428.00;;;;9875798;29;20223;-79
2023/12/31 23:47:46;;;;;;;9.73;3.60;;;;;6.60;99424.00;;;;9880347;29;20318;-81
2023/12/31 23:52:52;;;;;;;11.97;3.93;;;;;6.50;99430.00;;;;9857616;29;20302;-79
2023/12/31 23:57:53;;;;;;;14.93;3.10;;;;;6.50;99423.00;;;;9857835;29;20304;-79
